Time;durP1;ratioP1;P1;durP2;ratioP2;P2;SDS_P1;SDS_P2;PMS_P1;PMS_P2;Temp;Humidity;BMP_temperature;BMP_pressure;BME280_temperature;BME280_humidity;BME280_pressure;Samples;Min_cycle;Max_cycle;Signal;HPM_P1;HPM_P2
2022/08/12 00:43:25;;;;;;;10.27;5.97;;;22.90;1.00;;;;;;5046382;28;20506;-83
2022/08/12 00:48:38;;;;;;;6.13;5.60;;;22.80;1.00;;;;;;5046383;28;20478;-83
2022/08/12 00:51:05;;;;;;;7.27;5.23;;;22.80;1.00;;;;;;5041908;28;20452;-83
2022/08/12 00:53:31;;;;;;;7.63;6.83;;;22.70;1.00;;;;;;5040655;28;20455;-83
2022/08/12 00:55:58;;;;;;;6.50;5.23;;;22.60;1.00;;;;;;5021115;28;20440;-83
2022/08/12 00:58:27;;;;;;;8.50;5.57;;;22.60;1.00;;;;;;5036667;28;20948;-83
2022/08/12 01:01:04;;;;;;;7.33;5.77;;;22.50;1.00;;;;;;5037207;28;20487;-83
2022/08/12 01:11:51;;;;;;;5.97;5.30;;;22.30;1.00;;;;;;5033466;28;20486;-83
2022/08/12 01:14:22;;;;;;;11.00;6.47;;;22.20;1.00;;;;;;5044342;28;20435;-83
2022/08/12 01:16:49;;;;;;;10.20;6.40;;;22.20;1.00;;;;;;5044135;28;20459;-85
2022/08/12 01:19:19;;;;;;;8.23;5.90;;;22.20;1.00;;;;;;5034170;28;20432;-84
2022/08/12 01:22:21;;;;;;;7.10;5.40;;;22.10;1.00;;;;;;5044857;28;20464;-83
2022/08/12 01:25:11;;;;;;;9.50;6.43;;;22.10;1.00;;;;;;5043011;28;20508;-83
2022/08/12 01:27:39;;;;;;;8.70;6.00;;;22.10;1.00;;;;;;5039563;28;20451;-84
2022/08/12 01:30:08;;;;;;;13.33;6.30;;;22.10;1.00;;;;;;5043656;28;20485;-84
2022/08/12 01:32:37;;;;;;;14.70;6.60;;;22.00;1.00;;;;;;5045071;28;20437;-83
2022/08/12 01:35:14;;;;;;;13.83;6.80;;;21.90;1.00;;;;;;5024963;28;20980;-83
2022/08/12 01:38:03;;;;;;;12.10;6.53;;;21.90;1.00;;;;;;5039092;28;20439;-84
2022/08/12 01:40:34;;;;;;;15.27;6.10;;;21.80;1.00;;;;;;5026781;28;20448;-84
2022/08/12 01:43:04;;;;;;;10.17;6.67;;;21.80;1.40;;;;;;5044388;28;20433;-83
2022/08/12 01:45:33;;;;;;;15.10;6.53;;;21.80;1.40;;;;;;5043426;28;20442;-83
2022/08/12 01:48:24;;;;;;;9.13;6.50;;;21.80;1.50;;;;;;5042780;28;21222;-84
2022/08/12 01:51:03;;;;;;;14.30;5.50;;;21.80;2.00;;;;;;5026292;28;20463;-82
2022/08/12 01:54:03;;;;;;;8.77;6.40;;;21.70;2.30;;;;;;5026388;28;20516;-84
2022/08/12 01:56:40;;;;;;;8.70;6.43;;;21.70;3.10;;;;;;5045998;28;20539;-84
2022/08/12 02:01:55;;;;;;;11.13;6.00;;;21.70;3.20;;;;;;5041931;28;20485;-82
2022/08/12 02:14:10;;;;;;;8.60;6.03;;;21.50;5.10;;;;;;5044383;28;20512;-84
2022/08/12 02:16:45;;;;;;;17.80;7.50;;;21.40;4.80;;;;;;5027063;28;20438;-82
2022/08/12 02:19:36;;;;;;;11.33;6.63;;;21.30;5.10;;;;;;5044389;28;20554;-84
2022/08/12 02:22:11;;;;;;;12.87;7.07;;;21.30;5.70;;;;;;5042635;28;20442;-84
2022/08/12 02:24:40;;;;;;;12.10;7.60;;;21.20;6.10;;;;;;5043401;28;20446;-84
2022/08/12 02:27:07;;;;;;;8.70;6.73;;;21.20;5.80;;;;;;5045225;28;20448;-85
2022/08/12 02:29:34;;;;;;;17.63;6.77;;;21.20;6.70;;;;;;5041511;28;20471;-83
2022/08/12 02:32:01;;;;;;;16.70;7.30;;;21.20;6.80;;;;;;5043414;28;20469;-82
2022/08/12 02:34:28;;;;;;;9.53;7.00;;;21.20;7.40;;;;;;5042107;28;20431;-83
2022/08/12 02:36:54;;;;;;;11.30;6.90;;;21.20;7.80;;;;;;5041786;28;20446;-85
2022/08/12 02:39:25;;;;;;;14.90;6.60;;;21.20;8.60;;;;;;5044023;28;20462;-84
2022/08/12 02:41:53;;;;;;;12.30;6.90;;;21.20;9.10;;;;;;5044640;28;20471;-84
2022/08/12 02:44:22;;;;;;;13.70;7.87;;;21.20;9.60;;;;;;5041333;28;20461;-83
2022/08/12 02:46:52;;;;;;;10.40;7.80;;;21.10;10.00;;;;;;5043938;28;20465;-83
2022/08/12 02:49:22;;;;;;;16.93;8.10;;;21.10;10.10;;;;;;5041778;28;20825;-81
2022/08/12 02:51:48;;;;;;;13.83;8.30;;;21.10;10.70;;;;;;5045726;28;20971;-83
2022/08/12 02:54:14;;;;;;;9.90;6.90;;;21.00;11.00;;;;;;5024280;28;20437;-84
2022/08/12 02:56:41;;;;;;;8.43;7.40;;;21.00;11.00;;;;;;5045904;28;20921;-84
2022/08/12 02:59:10;;;;;;;16.33;8.37;;;21.00;11.20;;;;;;5045217;28;20193;-84
2022/08/12 03:01:42;;;;;;;10.93;7.30;;;21.00;11.70;;;;;;5045265;28;20481;-84
2022/08/12 03:04:12;;;;;;;12.97;7.90;;;20.90;12.20;;;;;;5049850;28;20453;-84
2022/08/12 03:06:44;;;;;;;12.67;7.60;;;20.90;13.00;;;;;;5045997;28;20447;-82
2022/08/12 03:09:13;;;;;;;9.80;7.50;;;20.90;12.40;;;;;;5048568;28;20549;-84
2022/08/12 03:12:06;;;;;;;13.20;8.40;;;20.90;13.20;;;;;;5050685;28;20465;-85
2022/08/12 03:14:34;;;;;;;9.97;8.70;;;20.80;13.00;;;;;;5048614;28;20435;-84
2022/08/12 03:17:16;;;;;;;10.97;9.40;;;20.70;13.40;;;;;;5045769;28;20572;-85
2022/08/12 03:19:44;;;;;;;9.17;7.70;;;20.50;13.40;;;;;;5047582;28;20527;-82
2022/08/12 03:22:14;;;;;;;11.13;8.60;;;20.40;14.20;;;;;;5045302;28;20444;-84
2022/08/12 03:24:42;;;;;;;9.40;8.60;;;20.40;14.70;;;;;;5047297;28;20463;-84
2022/08/12 03:27:09;;;;;;;14.77;8.57;;;20.30;15.10;;;;;;5046072;28;20497;-84
2022/08/12 03:29:40;;;;;;;13.67;9.40;;;20.20;15.20;;;;;;5048042;28;20492;-83
2022/08/12 03:32:07;;;;;;;11.17;8.40;;;20.30;16.00;;;;;;5047009;28;20464;-82
2022/08/12 03:34:34;;;;;;;9.10;8.20;;;20.30;16.50;;;;;;5045764;28;20433;-83
2022/08/12 03:37:01;;;;;;;8.77;7.97;;;20.30;17.00;;;;;;5027455;28;20473;-85
2022/08/12 03:39:40;;;;;;;8.27;7.47;;;20.30;17.80;;;;;;5044299;28;20439;-83
2022/08/12 03:42:18;;;;;;;10.07;7.40;;;20.30;18.30;;;;;;5046802;28;20442;-84
2022/08/12 04:01:56;;;;;;;8.77;7.47;;;19.80;21.50;;;;;;5055757;28;20468;-83
2022/08/12 04:04:44;;;;;;;9.40;8.60;;;19.80;23.10;;;;;;5050960;28;20425;-84
2022/08/12 04:07:10;;;;;;;9.87;8.10;;;19.70;23.30;;;;;;5048509;28;20440;-83
2022/08/12 04:09:42;;;;;;;9.43;8.10;;;19.70;23.50;;;;;;5032340;28;20456;-83
2022/08/12 04:14:57;;;;;;;8.90;8.00;;;19.70;25.20;;;;;;5050760;28;20744;-83
2022/08/12 04:17:26;;;;;;;8.70;7.90;;;19.70;26.20;;;;;;5034608;28;20504;-83
2022/08/12 04:19:56;;;;;;;10.23;8.03;;;19.70;26.80;;;;;;5046531;28;20479;-83
2022/08/12 04:22:29;;;;;;;9.43;7.23;;;19.70;26.80;;;;;;5049317;28;20800;-82
2022/08/12 04:24:59;;;;;;;8.60;7.90;;;19.80;27.00;;;;;;5047662;28;20950;-84
2022/08/12 04:27:25;;;;;;;12.27;7.77;;;19.80;27.10;;;;;;5049053;28;20437;-84
2022/08/12 04:29:51;;;;;;;9.53;7.60;;;19.90;27.50;;;;;;5046754;28;21215;-84
2022/08/12 04:32:17;;;;;;;7.50;6.80;;;19.90;27.60;;;;;;5032326;28;20210;-83
2022/08/12 04:34:45;;;;;;;15.20;8.53;;;20.00;27.90;;;;;;5047140;28;20180;-81
2022/08/12 04:37:11;;;;;;;13.10;8.97;;;20.00;28.50;;;;;;5048063;28;20179;-83
2022/08/12 04:39:38;;;;;;;12.80;7.73;;;20.10;29.60;;;;;;5031663;28;20946;-83
2022/08/12 04:42:03;;;;;;;13.03;8.00;;;20.10;29.90;;;;;;5053473;28;20420;-84
2022/08/12 04:44:30;;;;;;;15.03;9.00;;;20.20;31.60;;;;;;5045628;28;20437;-84
2022/08/12 04:46:56;;;;;;;14.63;9.67;;;20.20;30.80;;;;;;5052193;28;20180;-83
2022/08/12 04:49:23;;;;;;;18.60;9.07;;;20.30;31.30;;;;;;5031338;28;20460;-84
2022/08/12 04:51:49;;;;;;;13.97;8.97;;;20.30;31.00;;;;;;5052594;28;20204;-84
2022/08/12 04:54:15;;;;;;;21.13;9.63;;;20.30;31.70;;;;;;5043371;28;20447;-82
2022/08/12 04:56:42;;;;;;;20.50;8.70;;;20.30;33.20;;;;;;5051347;28;20442;-83
2022/08/12 04:59:07;;;;;;;26.57;10.00;;;20.40;32.20;;;;;;5040759;28;20669;-84
2022/08/12 05:01:35;;;;;;;29.80;9.30;;;20.40;32.80;;;;;;5107761;22;20486;-82
2022/08/12 05:04:03;;;;;;;29.73;10.00;;;20.50;33.10;;;;;;5115208;28;20174;-83
2022/08/12 05:06:28;;;;;;;28.17;8.60;;;20.50;32.50;;;;;;5094443;28;20442;-82
2022/08/12 05:08:55;;;;;;;24.53;9.60;;;20.60;33.00;;;;;;5110792;28;20519;-84
2022/08/12 05:11:23;;;;;;;37.17;10.20;;;20.70;33.30;;;;;;5101085;28;20216;-84
2022/08/12 05:13:51;;;;;;;30.47;10.13;;;20.80;33.60;;;;;;5092515;28;20439;-84
2022/08/12 05:16:16;;;;;;;34.83;10.10;;;20.90;33.80;;;;;;5099248;28;20448;-85
2022/08/12 05:18:42;;;;;;;25.33;10.30;;;21.00;34.30;;;;;;5110252;28;20426;-83
2022/08/12 05:21:08;;;;;;;31.77;10.83;;;21.00;33.80;;;;;;5082615;28;20210;-83
2022/08/12 05:23:38;;;;;;;44.63;11.43;;;21.10;34.80;;;;;;5098176;28;20180;-83
2022/08/12 05:26:04;;;;;;;40.40;11.10;;;21.20;35.30;;;;;;5088319;28;20486;-82
2022/08/12 05:28:31;;;;;;;42.27;10.60;;;21.40;34.30;;;;;;5091718;28;20791;-83
2022/08/12 05:30:57;;;;;;;31.07;10.63;;;21.50;34.60;;;;;;5081146;28;20452;-83
2022/08/12 05:33:39;;;;;;;44.47;11.90;;;21.90;35.40;;;;;;5095717;28;20431;-83
2022/08/12 05:36:13;;;;;;;35.73;10.50;;;22.80;50.60;;;;;;5098054;28;20424;-84
2022/08/12 05:38:56;;;;;;;43.93;10.67;;;26.30;45.00;;;;;;5097340;28;20422;-83
2022/08/12 05:41:31;;;;;;;51.17;11.17;;;29.50;46.70;;;;;;5094197;28;20453;-84
2022/08/12 05:44:05;;;;;;;36.13;11.83;;;32.20;47.80;;;;;;5094697;28;20425;-84
2022/08/12 05:46:32;;;;;;;58.33;10.83;;;34.50;48.00;;;;;;5076870;28;20496;-83
2022/08/12 05:48:59;;;;;;;45.23;9.50;;;36.30;45.20;;;;;;5068554;28;20483;-86
2022/08/12 05:51:32;;;;;;;35.80;10.70;;;38.00;40.60;;;;;;5101184;28;20479;-85
2022/08/12 05:53:59;;;;;;;45.53;10.07;;;39.70;36.40;;;;;;5085886;28;20458;-85
2022/08/12 05:56:29;;;;;;;29.33;9.80;;;41.20;28.60;;;;;;5092840;28;20414;-85
2022/08/12 05:59:07;;;;;;;33.90;10.33;;;42.40;23.20;;;;;;5088178;28;20458;-85
2022/08/12 06:01:34;;;;;;;50.17;9.33;;;43.40;18.00;;;;;;5086498;28;21015;-85
2022/08/12 06:03:59;;;;;;;37.83;9.60;;;44.50;13.80;;;;;;5064532;28;20909;-85
2022/08/12 06:06:25;;;;;;;41.40;8.67;;;45.40;9.60;;;;;;5079516;28;20547;-85
2022/08/12 06:08:52;;;;;;;43.17;9.70;;;46.60;6.20;;;;;;5084695;28;20191;-85
2022/08/12 06:11:20;;;;;;;34.63;8.87;;;48.20;2.50;;;;;;5081307;28;20674;-85
2022/08/12 06:13:49;;;;;;;38.00;9.30;;;50.00;1.00;;;;;;5082224;28;20515;-81
2022/08/12 06:16:19;;;;;;;43.40;10.30;;;51.50;1.00;;;;;;5103967;28;20527;-84
2022/08/12 06:18:45;;;;;;;40.20;9.50;;;52.70;1.00;;;;;;5102494;28;20188;-84
2022/08/12 06:21:14;;;;;;;34.60;9.70;;;54.10;1.00;;;;;;5091523;28;20658;-84
2022/08/12 06:23:41;;;;;;;63.38;9.75;;;55.20;1.00;;;;;;5070973;28;20628;-84
2022/08/12 06:26:10;;;;;;;28.10;9.73;;;56.20;1.00;;;;;;5096566;28;20179;-84
2022/08/12 06:28:37;;;;;;;39.08;9.75;;;57.10;1.00;;;;;;5073597;28;20200;-85
2022/08/12 06:31:05;;;;;;;31.70;9.23;;;58.10;1.00;;;;;;5077602;28;20202;-84
2022/08/12 06:33:32;;;;;;;32.58;10.45;;;59.00;1.00;;;;;;5085278;28;20199;-83
2022/08/12 06:36:01;;;;;;;30.98;9.40;;;59.50;1.00;;;;;;5090673;28;20304;-85
2022/08/12 06:38:30;;;;;;;39.05;9.77;;;60.00;1.00;;;;;;5080276;28;20186;-84
2022/08/12 06:43:44;;;;;;;36.20;9.82;;;61.30;1.00;;;;;;5113470;28;20186;-85
2022/08/12 06:46:13;;;;;;;36.65;9.00;;;61.60;1.00;;;;;;5110534;28;20182;-84
2022/08/12 06:48:42;;;;;;;30.40;9.48;;;61.80;1.00;;;;;;5078275;28;20191;-84
2022/08/12 06:51:09;;;;;;;28.27;8.73;;;62.00;1.00;;;;;;5080644;28;20222;-84
2022/08/12 06:53:35;;;;;;;20.10;8.13;;;62.30;1.00;;;;;;5084923;28;20199;-83
2022/08/12 06:56:01;;;;;;;42.17;9.30;;;61.80;1.00;;;;;;5074362;28;20180;-83
2022/08/12 06:58:29;;;;;;;36.97;7.43;;;60.80;1.00;;;;;;5039045;28;20187;-84
2022/08/12 07:00:56;;;;;;;22.40;5.95;;;59.80;1.00;;;;;;5090109;28;20615;-84
2022/08/12 07:03:27;;;;;;;22.60;5.40;;;58.90;1.00;;;;;;5088704;28;20201;-82
2022/08/12 07:06:00;;;;;;;24.08;5.18;;;57.70;1.00;;;;;;5086375;28;20168;-84
2022/08/12 07:08:28;;;;;;;20.65;6.85;;;56.50;1.00;;;;;;5091569;28;20176;-83
2022/08/12 07:10:58;;;;;;;18.15;5.43;;;55.60;1.00;;;;;;5089266;28;20218;-84
2022/08/12 07:13:37;;;;;;;27.45;6.05;;;55.20;1.00;;;;;;5095465;28;20240;-83
2022/08/12 07:16:04;;;;;;;23.65;5.25;;;54.80;1.00;;;;;;5091625;28;20550;-84
2022/08/12 07:18:31;;;;;;;20.98;5.82;;;54.90;1.00;;;;;;5094732;28;20186;-84
2022/08/12 07:20:59;;;;;;;25.23;6.05;;;54.80;1.00;;;;;;5097644;28;20200;-85
2022/08/12 07:23:26;;;;;;;22.42;5.75;;;54.60;1.00;;;;;;5098838;28;20186;-84
2022/08/12 07:25:53;;;;;;;24.95;5.80;;;54.80;1.00;;;;;;5075581;28;20640;-84
2022/08/12 07:28:22;;;;;;;20.27;6.88;;;55.10;1.00;;;;;;5095392;28;20662;-83
2022/08/12 07:30:49;;;;;;;31.10;5.90;;;55.00;1.00;;;;;;5097104;28;20227;-83
2022/08/12 07:33:16;;;;;;;22.23;4.93;;;54.60;1.00;;;;;;5112426;28;20698;-83
2022/08/12 07:35:46;;;;;;;27.58;7.80;;;54.20;1.00;;;;;;5102798;28;20190;-85
2022/08/12 07:38:33;;;;;;;21.38;4.72;;;54.10;1.00;;;;;;5075187;28;20179;-85
2022/08/12 07:41:12;;;;;;;18.85;4.90;;;54.10;1.00;;;;;;5083474;28;20244;-84
2022/08/12 07:44:04;;;;;;;25.52;5.80;;;54.00;1.00;;;;;;5075232;28;20575;-84
2022/08/12 07:46:37;;;;;;;24.98;5.82;;;54.00;1.00;;;;;;5093912;28;20247;-84
2022/08/12 07:49:06;;;;;;;22.83;5.22;;;54.00;1.00;;;;;;5107830;28;20187;-84
2022/08/12 07:51:33;;;;;;;11.73;3.50;;;54.20;1.00;;;;;;5098397;28;20254;-84
2022/08/12 07:54:00;;;;;;;5.68;3.05;;;54.40;1.00;;;;;;5094842;28;20617;-84
2022/08/12 07:56:26;;;;;;;9.88;3.13;;;54.60;1.00;;;;;;5069350;28;20179;-84
2022/08/12 07:58:52;;;;;;;7.00;3.10;;;55.00;1.00;;;;;;5080397;28;20167;-84
2022/08/12 08:01:20;;;;;;;9.57;3.30;;;55.50;1.00;;;;;;5087209;28;20224;-84
2022/08/12 08:06:34;;;;;;;12.45;3.42;;;54.40;1.00;;;;;;5067940;28;20215;-84
2022/08/12 08:09:02;;;;;;;9.15;3.28;;;54.40;1.00;;;;;;5084432;28;20267;-84
2022/08/12 08:14:12;;;;;;;5.60;2.00;;;53.70;1.00;;;;;;5085487;28;20195;-86
2022/08/12 08:16:39;;;;;;;12.70;2.50;;;53.70;1.00;;;;;;5087880;28;20195;-83
2022/08/12 08:19:07;;;;;;;6.07;2.87;;;53.90;1.00;;;;;;5081412;28;20203;-84
2022/08/12 08:21:34;;;;;;;5.47;2.55;;;54.60;1.00;;;;;;5084541;28;20207;-85
2022/08/12 08:24:16;;;;;;;4.55;2.25;;;55.10;1.00;;;;;;5083423;28;20258;-85
2022/08/12 08:26:42;;;;;;;3.25;1.85;;;55.50;1.00;;;;;;5107900;28;20190;-86
2022/08/12 08:29:08;;;;;;;6.38;2.50;;;55.90;1.00;;;;;;5101266;28;20692;-85
2022/08/12 08:31:36;;;;;;;4.82;2.58;;;55.60;1.00;;;;;;5098747;28;20214;-84
2022/08/12 08:34:02;;;;;;;2.55;2.22;;;55.40;1.00;;;;;;5094874;28;20186;-85
2022/08/12 08:36:27;;;;;;;6.85;2.47;;;54.80;1.00;;;;;;5095274;28;20309;-84
2022/08/12 08:38:53;;;;;;;10.10;3.22;;;54.60;1.00;;;;;;5077823;28;20292;-83
2022/08/12 08:44:04;;;;;;;9.40;2.80;;;54.40;1.00;;;;;;5088784;28;20190;-84
2022/08/12 08:46:33;;;;;;;7.30;2.50;;;54.50;1.00;;;;;;5084682;28;20698;-83
2022/08/12 08:49:00;;;;;;;8.52;2.92;;;54.50;1.00;;;;;;5079801;28;20287;-85
2022/08/12 08:51:25;;;;;;;6.05;2.60;;;54.80;1.00;;;;;;5080241;28;20210;-85
2022/08/12 08:53:52;;;;;;;3.23;2.23;;;54.70;1.00;;;;;;5079431;28;20188;-87
2022/08/12 08:56:18;;;;;;;5.90;2.30;;;54.70;1.00;;;;;;5087883;28;20180;-85
2022/08/12 08:58:44;;;;;;;5.53;1.93;;;54.10;1.00;;;;;;5079658;28;20183;-85
2022/08/12 09:01:11;;;;;;;4.70;2.20;;;54.20;1.00;;;;;;5091284;28;20213;-85
2022/08/12 09:03:36;;;;;;;8.15;1.90;;;54.40;1.00;;;;;;5083242;28;20301;-85
2022/08/12 09:06:02;;;;;;;2.50;2.13;;;55.10;1.00;;;;;;5086440;28;20226;-85
2022/08/12 09:08:28;;;;;;;4.30;2.00;;;55.20;1.00;;;;;;5085669;28;20218;-83
2022/08/12 09:10:57;;;;;;;7.30;2.03;;;54.70;1.00;;;;;;5068223;28;20200;-85
2022/08/12 09:13:33;;;;;;;6.60;1.90;;;54.40;1.00;;;;;;5080135;28;20227;-85
2022/08/12 09:15:59;;;;;;;3.43;2.10;;;54.00;1.00;;;;;;5079966;28;20190;-85
2022/08/12 09:18:26;;;;;;;2.20;2.00;;;54.30;1.00;;;;;;5083318;28;20176;-85
2022/08/12 09:20:51;;;;;;;6.30;1.83;;;54.20;1.00;;;;;;5088567;28;20195;-84
2022/08/12 09:23:17;;;;;;;3.30;2.50;;;53.80;1.00;;;;;;5082266;28;20708;-84
2022/08/12 09:25:43;;;;;;;5.90;2.00;;;53.10;1.00;;;;;;5076342;28;20280;-84
2022/08/12 09:28:10;;;;;;;4.93;2.33;;;52.40;1.00;;;;;;5083139;28;20188;-85
2022/08/12 09:30:37;;;;;;;5.63;1.60;;;51.90;1.00;;;;;;5086262;28;20473;-85
2022/08/12 09:33:04;;;;;;;4.60;1.67;;;51.70;1.00;;;;;;5085869;28;20437;-83
2022/08/12 09:35:32;;;;;;;6.77;2.47;;;51.40;1.00;;;;;;5094600;28;20441;-83
2022/08/12 09:38:01;;;;;;;6.73;2.60;;;51.00;1.00;;;;;;5065519;28;20453;-83
2022/08/12 09:40:28;;;;;;;9.67;2.33;;;50.40;1.00;;;;;;5086745;28;20491;-85
2022/08/12 09:45:44;;;;;;;7.33;2.20;;;50.20;1.00;;;;;;5089526;28;20444;-84
2022/08/12 09:48:15;;;;;;;7.00;2.00;;;49.90;1.00;;;;;;5067044;28;21041;-85
2022/08/12 09:50:41;;;;;;;3.00;1.93;;;49.60;1.00;;;;;;5079088;28;20557;-85
2022/08/12 09:53:14;;;;;;;3.30;2.17;;;49.30;1.00;;;;;;5077406;28;20471;-84
2022/08/12 09:55:46;;;;;;;4.93;2.07;;;49.40;1.00;;;;;;5077768;28;20498;-83
2022/08/12 09:58:17;;;;;;;5.37;2.07;;;49.20;1.00;;;;;;5065422;28;20446;-84
2022/08/12 10:00:45;;;;;;;5.73;2.27;;;49.00;1.00;;;;;;5093807;28;20472;-84
2022/08/12 10:03:13;;;;;;;4.20;2.17;;;49.20;1.00;;;;;;5096590;28;20487;-84
2022/08/12 10:05:42;;;;;;;6.20;1.67;;;49.00;1.00;;;;;;5082621;28;20449;-84
2022/08/12 10:08:12;;;;;;;8.13;2.47;;;48.70;1.00;;;;;;5088113;28;20431;-85
2022/08/12 10:13:41;;;;;;;9.00;2.13;;;48.20;1.00;;;;;;5093171;28;20815;-83
2022/08/12 10:16:27;;;;;;;4.80;2.33;;;47.90;1.00;;;;;;5082968;28;20430;-85
2022/08/12 10:18:58;;;;;;;7.90;2.10;;;47.60;1.00;;;;;;5078450;28;20482;-84
2022/08/12 10:21:29;;;;;;;6.60;2.20;;;47.20;1.00;;;;;;5093945;28;20462;-84
2022/08/12 10:23:56;;;;;;;9.57;2.20;;;46.80;1.00;;;;;;5083991;28;20461;-84
2022/08/12 10:31:53;;;;;;;4.27;1.90;;;46.60;1.00;;;;;;5086355;28;20449;-85
2022/08/12 10:34:23;;;;;;;4.00;2.30;;;46.20;1.00;;;;;;5083574;28;20438;-84
2022/08/12 10:36:50;;;;;;;3.83;1.83;;;46.10;1.00;;;;;;5088700;28;20184;-85
2022/08/12 10:39:18;;;;;;;5.63;2.00;;;46.10;1.00;;;;;;5085101;28;20462;-85
2022/08/12 10:44:29;;;;;;;6.73;2.57;;;46.50;1.00;;;;;;5096111;28;20507;-84
2022/08/12 10:46:55;;;;;;;2.83;1.90;;;46.70;1.00;;;;;;5086586;28;20462;-85
2022/08/12 10:49:26;;;;;;;4.70;2.23;;;47.10;1.00;;;;;;5082329;28;20597;-84
2022/08/12 10:51:55;;;;;;;6.83;2.00;;;47.20;1.00;;;;;;5069587;28;20453;-85
2022/08/12 10:54:21;;;;;;;5.73;2.27;;;47.00;1.00;;;;;;5084732;28;20576;-84
2022/08/12 10:56:48;;;;;;;6.00;2.47;;;46.80;1.00;;;;;;5082030;28;20921;-85
2022/08/12 10:59:18;;;;;;;6.27;2.40;;;46.70;1.00;;;;;;5088527;28;20847;-85
2022/08/12 11:01:44;;;;;;;4.43;2.33;;;46.40;1.00;;;;;;5067629;28;20652;-85
2022/08/12 11:04:12;;;;;;;3.87;2.37;;;46.20;1.00;;;;;;5082504;28;20917;-85
2022/08/12 11:06:46;;;;;;;3.20;2.37;;;46.10;1.00;;;;;;5079078;28;20181;-84
2022/08/12 11:09:16;;;;;;;3.10;2.20;;;45.90;1.00;;;;;;5062858;28;21194;-85
2022/08/12 11:11:48;;;;;;;3.63;2.00;;;45.80;1.00;;;;;;5079454;28;20450;-85
2022/08/12 11:14:23;;;;;;;5.33;2.50;;;46.00;1.00;;;;;;5086448;28;20948;-82
2022/08/12 11:16:49;;;;;;;5.17;1.90;;;46.40;1.00;;;;;;5074756;28;20470;-83
2022/08/12 11:19:14;;;;;;;5.40;2.03;;;46.40;1.00;;;;;;5080489;28;20462;-83
2022/08/12 11:21:40;;;;;;;4.57;2.23;;;46.40;1.00;;;;;;5083916;28;20227;-83
2022/08/12 11:24:06;;;;;;;10.43;2.10;;;46.40;1.00;;;;;;5091622;28;20191;-84
2022/08/12 11:26:32;;;;;;;4.23;2.33;;;46.80;1.00;;;;;;5088745;28;20539;-85
2022/08/12 11:28:58;;;;;;;2.67;2.30;;;47.00;1.00;;;;;;5085142;28;20192;-85
2022/08/12 11:31:23;;;;;;;7.80;2.10;;;46.90;1.00;;;;;;5090463;28;20466;-84
2022/08/12 11:33:49;;;;;;;7.00;2.20;;;46.80;1.00;;;;;;5085118;28;20188;-85
2022/08/12 11:36:16;;;;;;;2.73;2.07;;;46.80;1.00;;;;;;5087713;28;20188;-86
2022/08/12 11:38:42;;;;;;;6.27;2.40;;;47.00;1.00;;;;;;5088448;28;20191;-85
2022/08/12 11:41:08;;;;;;;2.93;1.80;;;46.80;1.00;;;;;;5099626;28;20990;-85
2022/08/12 11:43:33;;;;;;;6.40;2.70;;;46.60;1.00;;;;;;5097004;28;20446;-85
2022/08/12 11:45:59;;;;;;;7.83;2.00;;;46.30;1.00;;;;;;5103402;28;20194;-86
2022/08/12 11:48:31;;;;;;;2.90;1.60;;;46.50;1.00;;;;;;5097567;28;20184;-85
2022/08/12 11:50:56;;;;;;;3.63;1.57;;;46.80;1.00;;;;;;5095378;28;20199;-87
2022/08/12 11:53:22;;;;;;;3.10;1.90;;;47.30;1.00;;;;;;5089875;28;20425;-85
2022/08/12 11:55:47;;;;;;;5.10;1.70;;;47.90;1.00;;;;;;5078033;28;20191;-86
2022/08/12 11:58:13;;;;;;;3.90;1.60;;;48.30;1.00;;;;;;5090756;28;20180;-85
2022/08/12 12:00:38;;;;;;;8.23;2.27;;;48.20;1.00;;;;;;5071320;28;20365;-85
2022/08/12 12:03:04;;;;;;;5.13;1.80;;;47.70;1.00;;;;;;5063535;28;20194;-85
2022/08/12 12:05:29;;;;;;;4.63;1.93;;;47.20;1.00;;;;;;5075799;28;20185;-86
2022/08/12 12:07:55;;;;;;;3.90;1.70;;;46.90;1.00;;;;;;5095240;28;20172;-85
2022/08/12 12:10:20;;;;;;;5.87;2.07;;;46.70;1.00;;;;;;5089424;28;20181;-85
2022/08/12 12:12:46;;;;;;;2.93;2.17;;;46.20;1.00;;;;;;5092191;28;20197;-85
2022/08/12 12:15:12;;;;;;;4.40;1.80;;;45.90;1.00;;;;;;5101843;28;20214;-86
2022/08/12 12:17:39;;;;;;;5.43;1.67;;;45.90;1.00;;;;;;5088052;28;20193;-85
2022/08/12 12:20:10;;;;;;;6.37;1.93;;;45.40;1.00;;;;;;5097103;28;20195;-86
2022/08/12 12:22:40;;;;;;;6.20;1.80;;;45.20;1.00;;;;;;5096832;28;20437;-85
2022/08/12 12:25:07;;;;;;;2.33;1.60;;;45.00;1.00;;;;;;5096499;28;21041;-85
2022/08/12 12:28:06;;;;;;;3.37;2.10;;;44.80;1.00;;;;;;5086916;28;20419;-85
2022/08/12 12:30:32;;;;;;;3.80;2.20;;;44.70;1.00;;;;;;5072982;28;20836;-85
2022/08/12 12:32:58;;;;;;;1.70;1.60;;;44.70;1.00;;;;;;5098279;28;20511;-85
2022/08/12 12:35:24;;;;;;;4.60;1.73;;;44.60;1.00;;;;;;5108270;28;20430;-85
2022/08/12 12:37:58;;;;;;;10.47;2.00;;;44.40;1.00;;;;;;5097689;28;20183;-89
2022/08/12 12:40:27;;;;;;;4.60;1.87;;;43.90;1.00;;;;;;5106034;28;20257;-90
2022/08/12 12:42:53;;;;;;;2.60;1.90;;;43.80;1.00;;;;;;5077800;28;20433;-89
2022/08/12 12:45:19;;;;;;;3.30;1.70;;;44.00;1.00;;;;;;5094853;28;20414;-89
2022/08/12 12:47:56;;;;;;;5.93;1.97;;;44.10;1.00;;;;;;5104808;28;20418;-89
2022/08/12 12:50:26;;;;;;;2.30;1.67;;;44.00;1.00;;;;;;5099834;28;20183;-88
2022/08/12 12:52:53;;;;;;;2.63;1.60;;;43.80;1.00;;;;;;5112562;28;20460;-88
2022/08/12 12:55:19;;;;;;;2.50;1.50;;;43.50;1.00;;;;;;5088851;28;20520;-88
2022/08/12 12:57:45;;;;;;;8.00;2.00;;;43.50;1.00;;;;;;5075739;28;20437;-88
2022/08/12 13:00:15;;;;;;;3.40;1.57;;;43.50;1.00;;;;;;5103464;28;20515;-88
2022/08/12 13:02:54;;;;;;;2.70;1.70;;;43.60;1.00;;;;;;5093743;28;20267;-87
2022/08/12 13:05:24;;;;;;;4.10;1.87;;;43.70;1.00;;;;;;5073749;28;20856;-87
2022/08/12 13:07:55;;;;;;;5.30;2.50;;;43.70;1.00;;;;;;5090062;28;20871;-87
2022/08/12 13:10:28;;;;;;;5.77;1.83;;;43.30;1.00;;;;;;5088126;28;20937;-87
2022/08/12 13:13:01;;;;;;;3.50;1.80;;;43.00;1.00;;;;;;5106710;28;20424;-87
2022/08/12 13:15:26;;;;;;;6.57;2.10;;;43.00;1.00;;;;;;5103191;28;20430;-87
2022/08/12 13:18:02;;;;;;;6.13;2.10;;;42.60;1.00;;;;;;5089955;28;20956;-86
2022/08/12 13:20:30;;;;;;;3.57;1.90;;;42.20;1.00;;;;;;5096300;28;20248;-87
2022/08/12 13:22:56;;;;;;;1.90;1.80;;;41.90;1.00;;;;;;5091823;28;20529;-87
2022/08/12 13:25:23;;;;;;;3.07;1.80;;;41.90;1.00;;;;;;5090088;28;20829;-87
2022/08/12 13:27:49;;;;;;;2.37;2.03;;;41.90;1.00;;;;;;5075340;28;20422;-87
2022/08/12 13:30:22;;;;;;;5.10;1.83;;;41.80;1.00;;;;;;5104638;28;20500;-87
2022/08/12 13:32:57;;;;;;;2.00;1.73;;;42.00;1.00;;;;;;5074208;28;20430;-87
2022/08/12 13:35:28;;;;;;;3.30;1.40;;;42.00;1.00;;;;;;5079363;28;20414;-86
2022/08/12 13:37:55;;;;;;;2.50;1.90;;;41.60;1.00;;;;;;5086745;28;21036;-87
2022/08/12 13:40:29;;;;;;;1.90;1.70;;;41.10;1.00;;;;;;5105914;28;20468;-87
2022/08/12 13:43:00;;;;;;;6.13;1.50;;;40.70;1.00;;;;;;5080748;28;20441;-86
2022/08/12 13:45:28;;;;;;;3.20;1.70;;;40.80;1.00;;;;;;5091850;28;20422;-88
2022/08/12 13:47:59;;;;;;;3.00;2.10;;;40.90;1.00;;;;;;5094638;28;20422;-86
2022/08/12 13:50:46;;;;;;;2.63;1.83;;;40.90;1.00;;;;;;5113474;28;20512;-88
2022/08/12 13:53:15;;;;;;;6.47;2.10;;;40.60;1.00;;;;;;5091378;28;20555;-86
2022/08/12 13:55:44;;;;;;;9.33;2.00;;;40.20;1.00;;;;;;5095220;28;20422;-85
2022/08/12 13:58:21;;;;;;;2.13;1.90;;;39.80;1.00;;;;;;5072045;28;20441;-88
2022/08/12 14:00:50;;;;;;;6.73;1.90;;;39.60;1.00;;;;;;5093215;28;20466;-88
2022/08/12 14:03:17;;;;;;;2.97;1.90;;;39.30;1.00;;;;;;5087809;28;20447;-87
2022/08/12 14:05:42;;;;;;;3.10;2.33;;;38.90;1.00;;;;;;5087863;28;20427;-87
2022/08/12 14:08:10;;;;;;;6.07;2.13;;;39.00;1.00;;;;;;5089618;28;20535;-88
2022/08/12 14:10:54;;;;;;;6.87;1.97;;;39.00;1.00;;;;;;5077476;28;20802;-88
2022/08/12 14:13:28;;;;;;;2.43;1.40;;;39.10;1.00;;;;;;5094360;28;20439;-89
2022/08/12 14:15:59;;;;;;;3.20;1.73;;;39.20;1.00;;;;;;5097307;28;20425;-89
2022/08/12 14:18:28;;;;;;;5.10;2.07;;;38.90;1.00;;;;;;5082337;28;20441;-89
2022/08/12 14:21:02;;;;;;;9.20;2.30;;;38.70;1.00;;;;;;5075714;28;21029;-90
2022/08/12 14:23:36;;;;;;;9.73;2.20;;;38.30;1.00;;;;;;5095736;28;20430;-89
2022/08/12 14:26:07;;;;;;;6.80;2.20;;;37.90;1.00;;;;;;5076154;28;20517;-88
2022/08/12 14:28:37;;;;;;;5.87;2.07;;;37.50;1.00;;;;;;5087722;28;20427;-89
2022/08/12 14:31:07;;;;;;;2.50;1.83;;;37.10;1.00;;;;;;5091910;28;20446;-87
2022/08/12 14:33:39;;;;;;;2.20;1.73;;;36.80;1.00;;;;;;5068730;28;20494;-87
2022/08/12 14:36:08;;;;;;;6.70;1.63;;;36.50;1.00;;;;;;5072740;28;20949;-87
2022/08/12 14:38:38;;;;;;;2.63;1.70;;;36.40;1.00;;;;;;5068691;28;20453;-89
2022/08/12 14:41:07;;;;;;;2.50;1.37;;;36.30;1.00;;;;;;5077427;28;20461;-89
2022/08/12 14:43:36;;;;;;;2.63;1.57;;;36.20;1.00;;;;;;5069946;28;21812;-89
2022/08/12 14:46:05;;;;;;;7.13;1.73;;;36.10;1.00;;;;;;5090110;28;20433;-85
2022/08/12 14:48:31;;;;;;;8.17;2.20;;;36.00;1.00;;;;;;5086149;28;20431;-85
2022/08/12 14:50:57;;;;;;;2.20;1.50;;;35.90;1.00;;;;;;5087322;28;20506;-84
2022/08/12 14:53:23;;;;;;;4.30;2.07;;;36.00;1.00;;;;;;5086293;28;20478;-85